Time;durP1;ratioP1;P1;durP2;ratioP2;P2;SDS_P1;SDS_P2;PMS_P1;PMS_P2;Temp;Humidity;BMP_temperature;BMP_pressure;BME280_temperature;BME280_humidity;BME280_pressure;Samples;Min_cycle;Max_cycle;Signal;HPM_P1;HPM_P2
2023/04/23 09:06:46;;;;;;;1.30;1.13;;;;;;;;;;5181363;22;20359;-76
2023/04/23 09:09:16;;;;;;;1.40;1.30;;;;;;;;;;4994398;28;20239;-76
2023/04/23 09:11:42;;;;;;;1.20;1.10;;;;;;;;;;4994111;28;20299;-76
2023/04/23 09:14:08;;;;;;;0.90;0.90;;;;;;;;;;4994245;28;20211;-76
2023/04/23 09:16:35;;;;;;;1.40;1.30;;;;;;;;;;4992509;28;20721;-76
2023/04/23 09:19:02;;;;;;;2.07;1.50;;;;;;;;;;4992252;28;20297;-74
2023/04/23 09:21:28;;;;;;;1.20;1.00;;;;;;;;;;4992380;28;20219;-74
2023/04/23 09:23:54;;;;;;;1.53;1.10;;;;;;;;;;4992238;28;20607;-74
2023/04/23 09:26:22;;;;;;;2.20;1.10;;;;;;;;;;4992942;28;20227;-75
2023/04/23 09:28:51;;;;;;;1.20;1.10;;;;;;;;;;4992358;28;20227;-75
2023/04/23 09:31:20;;;;;;;2.33;1.40;;;;;;;;;;4993103;28;20266;-75
2023/04/23 09:33:50;;;;;;;1.30;1.20;;;;;;;;;;4994272;28;20661;-75
2023/04/23 09:36:20;;;;;;;1.30;1.20;;;;;;;;;;4993892;28;20736;-76
2023/04/23 09:38:46;;;;;;;2.70;1.30;;;;;;;;;;4994654;28;20234;-75
2023/04/23 09:41:22;;;;;;;1.30;1.20;;;;;;;;;;4994138;28;20207;-75
2023/04/23 09:43:48;;;;;;;1.40;1.30;;;;;;;;;;4994058;28;20234;-75
2023/04/23 09:46:14;;;;;;;1.40;1.30;;;;;;;;;;4994038;28;20242;-75
2023/04/23 09:48:41;;;;;;;1.57;1.17;;;;;;;;;;4994022;28;20231;-75
2023/04/23 09:51:08;;;;;;;1.40;1.20;;;;;;;;;;4994116;28;20281;-75
2023/04/23 09:53:44;;;;;;;3.23;1.33;;;;;;;;;;4993718;28;20749;-75
2023/04/23 09:56:11;;;;;;;2.77;1.20;;;;;;;;;;4994046;28;20226;-75
2023/04/23 09:58:37;;;;;;;1.47;1.00;;;;;;;;;;4993902;28;20539;-75
2023/04/23 10:01:07;;;;;;;1.17;1.07;;;;;;;;;;4993985;28;20207;-75
2023/04/23 10:03:33;;;;;;;1.10;1.00;;;;;;;;;;4993685;28;20238;-75
2023/04/23 10:06:00;;;;;;;1.20;1.10;;;;;;;;;;4994012;28;20235;-75
2023/04/23 10:08:26;;;;;;;1.40;0.80;;;;;;;;;;4994144;28;20237;-75
2023/04/23 10:10:52;;;;;;;1.37;1.20;;;;;;;;;;4994213;28;20214;-75
2023/04/23 10:13:18;;;;;;;0.73;0.73;;;;;;;;;;4994101;28;20211;-75
2023/04/23 10:15:48;;;;;;;0.93;0.70;;;;;;;;;;4993957;28;20231;-75
2023/04/23 10:18:15;;;;;;;0.80;0.77;;;;;;;;;;4994079;28;20203;-75
2023/04/23 10:20:42;;;;;;;0.93;0.93;;;;;;;;;;4994084;28;20614;-75
2023/04/23 10:23:11;;;;;;;1.23;0.80;;;;;;;;;;4993866;28;20229;-75
2023/04/23 10:25:38;;;;;;;1.10;1.00;;;;;;;;;;4993762;28;20231;-75
2023/04/23 10:28:06;;;;;;;0.93;0.90;;;;;;;;;;4993956;28;20262;-75
2023/04/23 10:30:32;;;;;;;0.93;0.90;;;;;;;;;;4997345;28;20587;-75
2023/04/23 10:33:00;;;;;;;2.67;0.90;;;;;;;;;;4997498;28;20233;-75
2023/04/23 10:35:26;;;;;;;0.90;0.90;;;;;;;;;;4997489;28;20231;-75
2023/04/23 10:37:53;;;;;;;1.80;1.00;;;;;;;;;;4997508;28;20203;-75
2023/04/23 10:40:21;;;;;;;2.33;1.03;;;;;;;;;;4997320;28;20215;-75
2023/04/23 10:42:48;;;;;;;3.33;1.20;;;;;;;;;;4997349;28;20214;-75
2023/04/23 10:45:15;;;;;;;1.13;0.90;;;;;;;;;;4996863;28;20753;-75
2023/04/23 10:47:42;;;;;;;1.57;0.97;;;;;;;;;;4996862;28;20712;-75
2023/04/23 10:50:28;;;;;;;1.47;1.00;;;;;;;;;;4997163;28;20257;-75
2023/04/23 10:52:55;;;;;;;1.57;0.90;;;;;;;;;;4997182;28;20207;-75
2023/04/23 10:55:26;;;;;;;1.17;0.90;;;;;;;;;;4996903;28;20706;-75
2023/04/23 10:57:58;;;;;;;2.23;0.90;;;;;;;;;;4997466;28;20229;-75
2023/04/23 11:00:26;;;;;;;1.33;1.10;;;;;;;;;;4997863;28;20555;-75
2023/04/23 11:02:52;;;;;;;0.70;0.70;;;;;;;;;;4996899;28;20203;-75
2023/04/23 11:05:18;;;;;;;1.10;1.00;;;;;;;;;;4996619;28;20264;-75
2023/04/23 11:08:04;;;;;;;1.30;1.20;;;;;;;;;;4996545;28;20223;-76
2023/04/23 11:10:31;;;;;;;0.90;0.90;;;;;;;;;;4996995;28;20257;-75
2023/04/23 11:12:57;;;;;;;1.23;0.80;;;;;;;;;;4996856;28;20214;-76
2023/04/23 11:15:24;;;;;;;0.83;0.80;;;;;;;;;;4996820;28;20262;-76
2023/04/23 11:17:58;;;;;;;1.43;0.90;;;;;;;;;;4996848;28;20242;-76
2023/04/23 11:20:24;;;;;;;2.00;1.10;;;;;;;;;;4996560;28;20634;-76
2023/04/23 11:22:51;;;;;;;1.17;0.87;;;;;;;;;;4996425;28;20573;-76
2023/04/23 11:25:22;;;;;;;0.77;0.70;;;;;;;;;;4996291;28;20235;-73
2023/04/23 11:27:49;;;;;;;1.40;0.70;;;;;;;;;;4996423;28;20247;-73
2023/04/23 11:30:16;;;;;;;0.83;0.70;;;;;;;;;;4996121;28;20223;-74
2023/04/23 11:32:47;;;;;;;0.70;0.70;;;;;;;;;;4996401;28;20213;-74
2023/04/23 11:35:14;;;;;;;1.30;0.80;;;;;;;;;;4996138;28;20226;-74
2023/04/23 11:37:40;;;;;;;1.70;0.70;;;;;;;;;;4996171;28;20210;-74
2023/04/23 11:40:09;;;;;;;1.37;1.17;;;;;;;;;;4995373;28;20658;-74
2023/04/23 11:42:45;;;;;;;1.20;1.10;;;;;;;;;;4996050;28;20305;-74
2023/04/23 11:45:25;;;;;;;10.23;9.43;;;;;;;;;;4995913;28;20223;-75
2023/04/23 11:47:54;;;;;;;1.07;1.07;;;;;;;;;;4996045;28;20234;-74
2023/04/23 11:50:21;;;;;;;1.07;0.90;;;;;;;;;;4995878;28;20203;-74
2023/04/23 11:52:48;;;;;;;0.80;0.80;;;;;;;;;;4995933;28;20207;-74
2023/04/23 11:55:16;;;;;;;1.13;0.90;;;;;;;;;;4996101;28;20227;-74
2023/04/23 11:57:43;;;;;;;1.20;1.10;;;;;;;;;;4995915;28;20605;-74
2023/04/23 12:00:14;;;;;;;1.23;1.20;;;;;;;;;;4995894;28;20670;-74
2023/04/23 12:02:49;;;;;;;1.13;0.80;;;;;;;;;;4996003;28;20203;-74
2023/04/23 12:05:16;;;;;;;0.93;0.83;;;;;;;;;;4995732;28;20234;-74
2023/04/23 12:07:42;;;;;;;2.27;1.90;;;;;;;;;;4995516;28;20223;-74
2023/04/23 12:10:08;;;;;;;0.80;0.80;;;;;;;;;;4995688;28;20191;-74
2023/04/23 12:12:35;;;;;;;1.60;0.80;;;;;;;;;;4995339;28;20429;-74
2023/04/23 12:15:05;;;;;;;0.70;0.70;;;;;;;;;;4995516;28;20286;-74
2023/04/23 12:17:31;;;;;;;0.90;0.70;;;;;;;;;;4995206;28;20570;-74
2023/04/23 12:19:57;;;;;;;0.70;0.70;;;;;;;;;;4995611;28;20226;-74
2023/04/23 12:22:27;;;;;;;0.83;0.83;;;;;;;;;;4996258;28;20573;-74
2023/04/23 12:24:54;;;;;;;0.70;0.70;;;;;;;;;;4995011;28;20254;-74
2023/04/23 12:27:21;;;;;;;0.83;0.70;;;;;;;;;;4995284;28;20207;-74
2023/04/23 12:29:49;;;;;;;0.83;0.77;;;;;;;;;;4995670;28;20207;-74
2023/04/23 12:32:17;;;;;;;1.83;1.00;;;;;;;;;;4995610;28;20235;-74
2023/04/23 12:34:55;;;;;;;0.93;0.93;;;;;;;;;;4995527;28;20204;-74
2023/04/23 12:37:26;;;;;;;0.80;0.80;;;;;;;;;;4994459;28;20291;-79
2023/04/23 12:39:54;;;;;;;0.70;0.70;;;;;;;;;;4994505;28;20654;-79
2023/04/23 12:42:20;;;;;;;1.30;1.20;;;;;;;;;;4993110;28;20203;-79
2023/04/23 12:44:47;;;;;;;2.60;1.20;;;;;;;;;;4995643;28;20199;-79
2023/04/23 12:47:14;;;;;;;1.27;0.80;;;;;;;;;;4995800;28;20654;-79
2023/04/23 12:49:41;;;;;;;0.83;0.83;;;;;;;;;;4995893;28;20227;-79
2023/04/23 12:52:07;;;;;;;2.90;1.00;;;;;;;;;;4996703;28;20211;-79
2023/04/23 12:54:36;;;;;;;0.83;0.80;;;;;;;;;;4996741;28;20569;-80
2023/04/23 12:57:02;;;;;;;1.13;1.03;;;;;;;;;;4994966;28;20227;-80
2023/04/23 12:59:29;;;;;;;2.00;0.80;;;;;;;;;;4986001;28;20195;-79
2023/04/23 13:01:55;;;;;;;1.23;0.90;;;;;;;;;;4979607;28;20211;-80
2023/04/23 13:04:21;;;;;;;0.80;0.80;;;;;;;;;;4992181;28;20327;-80
2023/04/23 13:06:48;;;;;;;0.80;0.80;;;;;;;;;;4988281;28;20235;-80
2023/04/23 13:09:14;;;;;;;1.53;1.10;;;;;;;;;;4994448;28;20682;-80
2023/04/23 13:11:41;;;;;;;1.63;0.97;;;;;;;;;;4995267;28;20274;-80
2023/04/23 13:14:07;;;;;;;2.00;1.00;;;;;;;;;;4996008;28;20218;-80
2023/04/23 13:16:34;;;;;;;0.87;0.87;;;;;;;;;;4996558;28;20238;-80
2023/04/23 13:19:00;;;;;;;1.10;0.90;;;;;;;;;;4992456;28;20204;-80
2023/04/23 13:21:27;;;;;;;1.93;0.80;;;;;;;;;;4995004;28;20207;-80
2023/04/23 13:23:53;;;;;;;1.77;0.90;;;;;;;;;;4996193;28;20218;-80
2023/04/23 13:26:20;;;;;;;1.23;0.97;;;;;;;;;;4991485;28;20231;-80
2023/04/23 13:28:46;;;;;;;1.00;0.80;;;;;;;;;;4994800;28;20705;-80
2023/04/23 13:31:12;;;;;;;1.10;1.00;;;;;;;;;;4995910;28;20678;-80
2023/04/23 13:33:39;;;;;;;2.40;1.20;;;;;;;;;;4987337;28;20600;-79
2023/04/23 13:36:06;;;;;;;1.67;1.20;;;;;;;;;;4996042;28;20588;-79
2023/04/23 13:38:32;;;;;;;1.80;1.63;;;;;;;;;;4995620;28;20199;-80
2023/04/23 13:40:58;;;;;;;1.17;1.07;;;;;;;;;;4996637;28;20211;-79
2023/04/23 13:43:25;;;;;;;0.93;0.73;;;;;;;;;;4996520;28;20218;-79
2023/04/23 13:45:52;;;;;;;0.80;0.80;;;;;;;;;;4996891;28;20227;-80
2023/04/23 13:48:19;;;;;;;1.20;1.10;;;;;;;;;;4997221;28;20231;-79
2023/04/23 13:50:45;;;;;;;1.33;0.60;;;;;;;;;;4990944;28;20577;-78
2023/04/23 13:53:12;;;;;;;2.47;1.00;;;;;;;;;;4993975;28;20211;-79
2023/04/23 13:55:38;;;;;;;0.73;0.73;;;;;;;;;;4996323;28;20322;-79
2023/04/23 13:58:06;;;;;;;2.67;1.60;;;;;;;;;;4996998;28;20210;-79
2023/04/23 14:00:33;;;;;;;1.70;1.40;;;;;;;;;;4996773;28;20203;-79
2023/04/23 14:02:59;;;;;;;1.60;0.80;;;;;;;;;;4995584;28;20301;-78
2023/04/23 14:05:25;;;;;;;2.27;0.80;;;;;;;;;;4999300;28;20690;-79
2023/04/23 14:07:51;;;;;;;1.63;1.00;;;;;;;;;;4997559;28;20215;-79
2023/04/23 14:10:18;;;;;;;2.63;1.40;;;;;;;;;;4997964;28;20215;-79
2023/04/23 14:12:44;;;;;;;3.00;1.83;;;;;;;;;;4999615;28;20209;-79
2023/04/23 14:15:11;;;;;;;3.70;2.30;;;;;;;;;;4998878;28;20319;-79
2023/04/23 14:17:39;;;;;;;2.43;1.37;;;;;;;;;;5000245;28;20210;-79
2023/04/23 14:20:06;;;;;;;2.03;1.10;;;;;;;;;;4999222;28;20539;-79
2023/04/23 14:22:32;;;;;;;1.50;1.10;;;;;;;;;;5000277;28;20281;-79
2023/04/23 14:25:02;;;;;;;1.13;0.80;;;;;;;;;;4999746;28;20238;-79
2023/04/23 14:27:32;;;;;;;1.20;1.10;;;;;;;;;;4998777;28;20218;-79
2023/04/23 14:30:03;;;;;;;1.73;1.00;;;;;;;;;;4999072;28;20231;-73
2023/04/23 14:32:30;;;;;;;3.53;3.23;;;;;;;;;;4997843;28;20191;-73
2023/04/23 14:34:56;;;;;;;2.03;1.83;;;;;;;;;;4995025;28;20205;-73
2023/04/23 14:37:22;;;;;;;1.70;1.20;;;;;;;;;;4997377;28;20203;-73
2023/04/23 14:39:48;;;;;;;1.00;0.90;;;;;;;;;;4996083;28;20212;-73
2023/04/23 14:42:15;;;;;;;1.77;0.90;;;;;;;;;;4997158;28;20215;-73
2023/04/23 14:44:41;;;;;;;2.33;1.17;;;;;;;;;;4996977;28;20211;-73
2023/04/23 14:47:10;;;;;;;3.73;0.80;;;;;;;;;;4996598;28;20666;-73
2023/04/23 14:49:36;;;;;;;1.67;1.00;;;;;;;;;;4995589;28;20231;-74
2023/04/23 14:52:04;;;;;;;1.67;1.00;;;;;;;;;;4997236;28;20203;-73
2023/04/23 14:54:30;;;;;;;1.73;1.00;;;;;;;;;;4997035;28;20211;-73
2023/04/23 14:56:56;;;;;;;1.90;1.40;;;;;;;;;;4997085;28;20234;-73
2023/04/23 14:59:23;;;;;;;1.40;1.20;;;;;;;;;;4997012;28;20207;-73
2023/04/23 15:01:49;;;;;;;1.67;1.10;;;;;;;;;;4995027;28;20565;-73
2023/04/23 15:04:16;;;;;;;2.30;0.90;;;;;;;;;;4996986;28;20214;-73
2023/04/23 15:06:42;;;;;;;1.00;1.00;;;;;;;;;;4996555;28;20231;-73
2023/04/23 15:09:09;;;;;;;2.70;0.93;;;;;;;;;;4995280;28;20234;-73
2023/04/23 15:11:37;;;;;;;2.73;1.30;;;;;;;;;;4994794;28;20261;-74
2023/04/23 15:14:26;;;;;;;2.20;1.70;;;;;;;;;;4996919;28;20281;-74
2023/04/23 15:16:52;;;;;;;3.73;1.90;;;;;;;;;;4982897;28;20238;-74
2023/04/23 15:19:19;;;;;;;1.37;1.00;;;;;;;;;;4996825;28;20207;-74
2023/04/23 15:21:45;;;;;;;1.57;1.00;;;;;;;;;;4994269;28;20207;-74
2023/04/23 15:24:12;;;;;;;1.60;1.37;;;;;;;;;;4996050;28;20208;-73
2023/04/23 15:26:39;;;;;;;1.67;1.10;;;;;;;;;;4994845;28;20254;-74
2023/04/23 15:29:07;;;;;;;2.97;1.13;;;;;;;;;;4993073;28;20708;-74
2023/04/23 15:31:33;;;;;;;2.47;1.30;;;;;;;;;;4992823;28;20686;-74
2023/04/23 15:34:01;;;;;;;2.23;1.10;;;;;;;;;;4995921;28;20290;-74
2023/04/23 15:36:27;;;;;;;2.57;1.60;;;;;;;;;;4994988;28;20318;-74
2023/04/23 15:38:54;;;;;;;1.40;1.17;;;;;;;;;;4996403;28;20203;-74
2023/04/23 15:41:20;;;;;;;2.33;1.30;;;;;;;;;;4995027;28;20207;-74
2023/04/23 15:43:49;;;;;;;1.53;1.03;;;;;;;;;;4996115;28;20203;-74
2023/04/23 15:46:15;;;;;;;2.33;1.30;;;;;;;;;;4995217;28;20279;-75
2023/04/23 15:48:41;;;;;;;1.43;0.80;;;;;;;;;;4992435;28;20231;-74
2023/04/23 15:51:08;;;;;;;1.23;0.93;;;;;;;;;;4995195;28;20748;-75
2023/04/23 15:53:34;;;;;;;1.17;1.00;;;;;;;;;;4996536;28;20207;-75
2023/04/23 15:56:01;;;;;;;3.00;1.03;;;;;;;;;;4993578;28;20223;-74
2023/04/23 15:58:27;;;;;;;1.83;0.80;;;;;;;;;;4996272;28;20203;-74
2023/04/23 16:00:53;;;;;;;1.00;0.90;;;;;;;;;;4995515;28;20202;-74
2023/04/23 16:03:19;;;;;;;1.13;0.80;;;;;;;;;;4995740;28;20218;-75
2023/04/23 16:05:49;;;;;;;1.10;1.00;;;;;;;;;;4994898;28;20690;-75
2023/04/23 16:08:16;;;;;;;1.00;1.00;;;;;;;;;;4994150;28;20215;-75
2023/04/23 16:10:42;;;;;;;1.10;0.93;;;;;;;;;;4985862;28;20255;-75
2023/04/23 16:13:08;;;;;;;1.40;1.00;;;;;;;;;;4990616;28;20577;-75
2023/04/23 16:15:35;;;;;;;1.07;0.97;;;;;;;;;;4988021;28;20242;-75
2023/04/23 16:18:01;;;;;;;2.03;1.17;;;;;;;;;;4993540;28;20214;-75
2023/04/23 16:20:28;;;;;;;1.70;1.10;;;;;;;;;;4993932;28;20234;-75
2023/04/23 16:22:54;;;;;;;1.60;1.50;;;;;;;;;;4988830;28;20245;-75
2023/04/23 16:25:21;;;;;;;1.60;1.40;;;;;;;;;;4993397;28;20227;-75
2023/04/23 16:27:47;;;;;;;2.40;1.20;;;;;;;;;;4993377;28;20203;-75
2023/04/23 16:30:13;;;;;;;1.40;1.20;;;;;;;;;;4995139;28;20594;-75
2023/04/23 16:32:39;;;;;;;1.57;0.90;;;;;;;;;;4992858;28;20677;-75
2023/04/23 16:35:07;;;;;;;2.83;1.30;;;;;;;;;;4994207;28;20588;-74
2023/04/23 16:37:33;;;;;;;3.27;1.20;;;;;;;;;;4990921;28;20214;-74
2023/04/23 16:40:00;;;;;;;4.57;1.60;;;;;;;;;;4994991;28;20211;-75
2023/04/23 16:42:26;;;;;;;5.07;1.60;;;;;;;;;;4995013;28;20265;-74
2023/04/23 16:44:53;;;;;;;4.30;1.23;;;;;;;;;;4993962;28;20204;-78
2023/04/23 16:47:19;;;;;;;1.90;1.10;;;;;;;;;;4996787;28;20211;-78
2023/04/23 16:49:45;;;;;;;1.63;0.80;;;;;;;;;;4994196;28;20685;-78
2023/04/23 16:52:11;;;;;;;0.70;0.63;;;;;;;;;;4979866;28;20215;-77
2023/04/23 16:54:38;;;;;;;2.30;1.10;;;;;;;;;;4975086;28;20204;-77
2023/04/23 16:57:06;;;;;;;1.33;0.90;;;;;;;;;;4975218;28;20228;-77
2023/04/23 16:59:32;;;;;;;4.57;1.30;;;;;;;;;;4975368;28;20214;-77
2023/04/23 17:01:58;;;;;;;3.17;1.20;;;;;;;;;;4975138;28;20211;-77
2023/04/23 17:04:25;;;;;;;1.97;1.30;;;;;;;;;;4974989;28;20223;-77
2023/04/23 17:06:51;;;;;;;2.83;1.43;;;;;;;;;;4975437;28;20228;-77
2023/04/23 17:09:18;;;;;;;1.27;0.83;;;;;;;;;;4975341;28;20223;-77
2023/04/23 17:11:44;;;;;;;2.50;1.20;;;;;;;;;;4975820;28;20670;-77
2023/04/23 17:14:11;;;;;;;2.33;1.27;;;;;;;;;;4976019;28;20689;-77
2023/04/23 17:16:37;;;;;;;1.77;1.20;;;;;;;;;;4976560;28;20299;-77
2023/04/23 17:19:03;;;;;;;3.63;1.13;;;;;;;;;;4975765;28;20204;-73
2023/04/23 17:21:31;;;;;;;2.07;1.37;;;;;;;;;;4974293;28;20678;-73
2023/04/23 17:23:57;;;;;;;1.70;1.40;;;;;;;;;;4974667;28;20583;-73
2023/04/23 17:26:23;;;;;;;3.73;1.20;;;;;;;;;;4974404;28;20232;-73
2023/04/23 17:28:50;;;;;;;1.43;0.90;;;;;;;;;;4974663;28;20686;-73
2023/04/23 17:31:17;;;;;;;1.60;1.10;;;;;;;;;;4975006;28;20579;-73
2023/04/23 17:33:45;;;;;;;3.00;1.30;;;;;;;;;;4974620;28;20674;-73
2023/04/23 17:36:12;;;;;;;2.93;1.10;;;;;;;;;;4974840;28;20227;-73
2023/04/23 17:38:38;;;;;;;2.83;1.20;;;;;;;;;;4973953;28;20208;-73
2023/04/23 17:41:05;;;;;;;1.20;1.10;;;;;;;;;;4974557;28;20689;-73
2023/04/23 17:43:33;;;;;;;2.63;1.87;;;;;;;;;;4974734;28;20223;-73
2023/04/23 17:46:00;;;;;;;1.97;1.10;;;;;;;;;;4974604;28;20236;-73
2023/04/23 17:48:26;;;;;;;2.30;1.33;;;;;;;;;;4974375;28;20339;-73
2023/04/23 17:50:54;;;;;;;2.90;1.40;;;;;;;;;;4974437;28;20241;-73
2023/04/23 17:53:21;;;;;;;1.97;1.27;;;;;;;;;;4974504;28;20214;-73
2023/04/23 17:55:47;;;;;;;2.80;1.53;;;;;;;;;;4974280;28;20319;-73
2023/04/23 17:58:14;;;;;;;2.10;1.20;;;;;;;;;;4974794;28;20211;-73
2023/04/23 18:00:41;;;;;;;1.27;1.17;;;;;;;;;;4974879;28;20204;-74
2023/04/23 18:03:08;;;;;;;2.03;1.10;;;;;;;;;;4974834;28;20633;-73
2023/04/23 18:05:35;;;;;;;1.93;1.20;;;;;;;;;;4974648;28;20231;-73
2023/04/23 18:08:03;;;;;;;4.13;1.30;;;;;;;;;;4975134;28;20306;-73
2023/04/23 18:10:29;;;;;;;2.40;1.23;;;;;;;;;;4974548;28;20338;-73
2023/04/23 18:12:56;;;;;;;1.57;1.20;;;;;;;;;;4975438;28;20314;-73
2023/04/23 18:15:24;;;;;;;1.40;1.20;;;;;;;;;;4975038;28;20282;-73
2023/04/23 18:17:53;;;;;;;1.57;1.23;;;;;;;;;;4974294;28;20208;-73
2023/04/23 18:20:22;;;;;;;1.63;1.30;;;;;;;;;;4974530;28;20219;-73
2023/04/23 18:22:48;;;;;;;2.20;1.80;;;;;;;;;;4974414;28;20215;-73
2023/04/23 18:25:16;;;;;;;2.23;1.40;;;;;;;;;;4974307;28;20322;-73
2023/04/23 18:27:42;;;;;;;1.63;1.27;;;;;;;;;;4974186;28;20211;-73
2023/04/23 18:30:10;;;;;;;3.60;1.50;;;;;;;;;;4974101;28;20721;-73
2023/04/23 18:32:41;;;;;;;3.90;1.47;;;;;;;;;;4973977;28;20208;-73
2023/04/23 18:35:08;;;;;;;2.50;1.50;;;;;;;;;;4972869;28;20642;-73
2023/04/23 18:37:38;;;;;;;2.00;1.47;;;;;;;;;;4974099;28;20274;-73
2023/04/23 18:40:05;;;;;;;3.13;1.50;;;;;;;;;;4974326;28;20298;-73
2023/04/23 18:42:32;;;;;;;2.57;1.60;;;;;;;;;;4974165;28;20311;-73
2023/04/23 18:44:58;;;;;;;1.60;1.50;;;;;;;;;;4974364;28;20641;-73
2023/04/23 18:47:27;;;;;;;1.47;1.37;;;;;;;;;;4974076;28;20215;-73
2023/04/23 18:49:55;;;;;;;2.67;1.40;;;;;;;;;;4975332;28;20327;-73
2023/04/23 18:52:22;;;;;;;4.70;1.80;;;;;;;;;;4976712;28;20296;-73
2023/04/23 18:54:48;;;;;;;2.00;1.53;;;;;;;;;;4977494;28;20742;-73
2023/04/23 18:57:15;;;;;;;3.77;3.00;;;;;;;;;;4977404;28;20247;-73
2023/04/23 18:59:41;;;;;;;4.67;2.23;;;;;;;;;;4977490;28;20211;-73
2023/04/23 19:02:08;;;;;;;3.17;1.83;;;;;;;;;;4978180;28;20307;-73
2023/04/23 19:04:34;;;;;;;3.50;2.00;;;;;;;;;;4977591;28;20250;-73
2023/04/23 19:07:01;;;;;;;2.80;1.80;;;;;;;;;;4977564;28;20227;-73
2023/04/23 19:09:27;;;;;;;2.57;1.90;;;;;;;;;;4977272;28;20250;-74
2023/04/23 19:11:54;;;;;;;3.80;1.80;;;;;;;;;;4977145;28;20320;-74
2023/04/23 19:14:21;;;;;;;2.87;2.00;;;;;;;;;;4977450;28;20318;-74
2023/04/23 19:16:49;;;;;;;2.07;1.83;;;;;;;;;;4977090;28;20231;-74
2023/04/23 19:19:15;;;;;;;4.60;1.97;;;;;;;;;;4976159;28;20576;-74
2023/04/23 19:21:42;;;;;;;4.13;1.70;;;;;;;;;;4976950;28;20307;-74
2023/04/23 19:24:08;;;;;;;1.97;1.60;;;;;;;;;;4977156;28;20568;-74
2023/04/23 19:26:35;;;;;;;1.70;1.57;;;;;;;;;;4976857;28;20418;-74
2023/04/23 19:29:02;;;;;;;1.93;1.60;;;;;;;;;;4977230;28;20298;-74
2023/04/23 19:31:29;;;;;;;2.03;1.57;;;;;;;;;;4976728;28;20327;-74
2023/04/23 19:33:56;;;;;;;1.93;1.50;;;;;;;;;;4977194;28;20246;-74
2023/04/23 19:36:22;;;;;;;1.67;1.10;;;;;;;;;;4976711;28;20274;-74
2023/04/23 19:38:49;;;;;;;1.20;1.00;;;;;;;;;;4976689;28;20247;-74
2023/04/23 19:41:15;;;;;;;1.97;1.00;;;;;;;;;;4977153;28;20242;-74
2023/04/23 19:43:42;;;;;;;1.03;1.00;;;;;;;;;;4976933;28;20294;-74
2023/04/23 19:46:08;;;;;;;1.47;1.23;;;;;;;;;;4977009;28;20316;-74
2023/04/23 19:48:36;;;;;;;1.87;0.90;;;;;;;;;;4976986;28;20269;-74
2023/04/23 19:51:03;;;;;;;1.23;1.10;;;;;;;;;;4976227;28;20321;-73
2023/04/23 19:53:29;;;;;;;2.57;1.10;;;;;;;;;;4989865;28;20269;-77
2023/04/23 19:55:56;;;;;;;1.43;1.07;;;;;;;;;;4996796;28;20273;-78
2023/04/23 19:58:22;;;;;;;1.60;0.80;;;;;;;;;;4996506;28;20293;-78
2023/04/23 20:00:49;;;;;;;1.10;0.93;;;;;;;;;;4995813;28;20236;-78
2023/04/23 20:03:15;;;;;;;1.43;0.97;;;;;;;;;;4996440;28;20216;-78
2023/04/23 20:05:43;;;;;;;1.83;0.83;;;;;;;;;;4996546;28;20761;-78
2023/04/23 20:08:14;;;;;;;2.53;0.90;;;;;;;;;;4994816;28;20743;-78
2023/04/23 20:10:41;;;;;;;0.93;0.93;;;;;;;;;;4996355;28;20573;-78
2023/04/23 20:13:08;;;;;;;0.90;0.80;;;;;;;;;;4996318;28;20286;-78
2023/04/23 20:15:35;;;;;;;3.10;1.03;;;;;;;;;;4996124;28;20264;-78
2023/04/23 20:18:02;;;;;;;1.23;0.80;;;;;;;;;;4996243;28;20241;-78
2023/04/23 20:20:28;;;;;;;1.80;0.87;;;;;;;;;;4996013;28;20290;-78
2023/04/23 20:22:54;;;;;;;1.43;0.90;;;;;;;;;;4996009;28;20220;-78
2023/04/23 20:25:22;;;;;;;2.40;0.90;;;;;;;;;;4995910;28;20231;-78
2023/04/23 20:27:48;;;;;;;1.27;0.70;;;;;;;;;;4996251;28;20266;-78
2023/04/23 20:30:15;;;;;;;1.50;0.80;;;;;;;;;;4996416;28;20231;-78
2023/04/23 20:32:41;;;;;;;3.20;0.90;;;;;;;;;;4996128;28;20232;-78
2023/04/23 20:35:08;;;;;;;1.33;0.80;;;;;;;;;;4996093;28;20227;-78
2023/04/23 20:37:34;;;;;;;3.57;0.80;;;;;;;;;;4996476;28;20295;-79
2023/04/23 20:40:00;;;;;;;0.77;0.73;;;;;;;;;;4996673;28;20278;-78
2023/04/23 20:42:27;;;;;;;1.67;0.70;;;;;;;;;;4996952;28;20208;-78
2023/04/23 20:44:54;;;;;;;2.80;0.87;;;;;;;;;;4997335;28;20211;-78
2023/04/23 20:47:20;;;;;;;1.07;0.80;;;;;;;;;;4996820;28;20570;-78
2023/04/23 20:49:46;;;;;;;1.70;0.90;;;;;;;;;;4996562;28;20209;-78
2023/04/23 20:52:14;;;;;;;1.27;0.90;;;;;;;;;;4996809;28;20229;-78
2023/04/23 20:54:41;;;;;;;0.90;0.73;;;;;;;;;;4996914;28;20209;-78
2023/04/23 20:57:07;;;;;;;1.10;0.80;;;;;;;;;;4996129;28;20637;-79
2023/04/23 20:59:33;;;;;;;1.80;1.00;;;;;;;;;;4996760;28;20210;-79
2023/04/23 21:02:00;;;;;;;0.90;0.83;;;;;;;;;;4996677;28;20292;-79
2023/04/23 21:04:26;;;;;;;1.07;0.97;;;;;;;;;;4996854;28;20211;-79
2023/04/23 21:06:52;;;;;;;0.70;0.70;;;;;;;;;;4996560;28;20224;-78
2023/04/23 21:09:18;;;;;;;1.77;0.90;;;;;;;;;;4996527;28;20221;-79
2023/04/23 21:11:45;;;;;;;1.17;0.97;;;;;;;;;;4997056;28;20224;-79
2023/04/23 21:14:11;;;;;;;2.10;0.90;;;;;;;;;;4996527;28;20266;-79
2023/04/23 21:16:37;;;;;;;1.33;0.90;;;;;;;;;;4996388;28;20223;-79
2023/04/23 21:19:04;;;;;;;1.63;0.80;;;;;;;;;;4996367;28;20223;-79
2023/04/23 21:21:31;;;;;;;0.97;0.80;;;;;;;;;;4995826;28;20663;-79
2023/04/23 21:23:58;;;;;;;1.03;0.70;;;;;;;;;;4996404;28;20208;-79
2023/04/23 21:26:25;;;;;;;2.83;0.80;;;;;;;;;;4996632;28;20231;-79
2023/04/23 21:28:51;;;;;;;1.63;1.37;;;;;;;;;;4996008;28;20208;-79
2023/04/23 21:31:24;;;;;;;1.73;1.20;;;;;;;;;;4996032;28;20238;-79
2023/04/23 21:33:51;;;;;;;2.10;1.30;;;;;;;;;;4995855;28;20215;-79
2023/04/23 21:36:17;;;;;;;2.40;1.33;;;;;;;;;;4996260;28;20231;-79
2023/04/23 21:38:43;;;;;;;1.57;1.00;;;;;;;;;;4995646;28;20225;-79
2023/04/23 21:41:09;;;;;;;2.23;0.90;;;;;;;;;;4995639;28;20207;-80
2023/04/23 21:43:36;;;;;;;1.40;0.83;;;;;;;;;;4995789;28;20223;-80
2023/04/23 21:46:02;;;;;;;0.53;0.50;;;;;;;;;;4995790;28;20235;-79
2023/04/23 21:48:30;;;;;;;1.33;0.60;;;;;;;;;;4978454;28;20211;-80
2023/04/23 21:50:56;;;;;;;0.60;0.60;;;;;;;;;;4995937;28;20234;-80
2023/04/23 21:53:23;;;;;;;1.93;0.73;;;;;;;;;;4996731;28;20258;-80
2023/04/23 21:55:49;;;;;;;0.83;0.80;;;;;;;;;;4995711;28;20764;-80
2023/04/23 21:58:15;;;;;;;2.20;0.70;;;;;;;;;;4995711;28;20266;-80
2023/04/23 22:00:43;;;;;;;0.60;0.60;;;;;;;;;;4995661;28;20215;-80
2023/04/23 22:03:10;;;;;;;0.67;0.57;;;;;;;;;;4995595;28;20247;-80
2023/04/23 22:05:36;;;;;;;0.73;0.60;;;;;;;;;;4995975;28;20229;-80
2023/04/23 22:08:02;;;;;;;1.47;0.60;;;;;;;;;;4995769;28;20219;-80
2023/04/23 22:10:29;;;;;;;0.70;0.60;;;;;;;;;;4995323;28;20724;-80
2023/04/23 22:12:55;;;;;;;1.00;0.60;;;;;;;;;;4995545;28;20207;-80
2023/04/23 22:15:21;;;;;;;0.73;0.70;;;;;;;;;;4995551;28;20274;-80
2023/04/23 22:17:49;;;;;;;0.70;0.67;;;;;;;;;;4995264;28;20214;-80
2023/04/23 22:20:15;;;;;;;0.87;0.67;;;;;;;;;;4995431;28;20217;-80
2023/04/23 22:22:42;;;;;;;1.40;0.60;;;;;;;;;;4995753;28;20203;-80
2023/04/23 22:25:09;;;;;;;1.30;0.67;;;;;;;;;;4997472;28;20734;-80
2023/04/23 22:27:36;;;;;;;0.50;0.50;;;;;;;;;;4999736;28;20621;-80
2023/04/23 22:30:03;;;;;;;1.67;0.80;;;;;;;;;;4999444;28;20258;-80
2023/04/23 22:32:30;;;;;;;0.60;0.60;;;;;;;;;;4999408;28;20210;-80
2023/04/23 22:34:56;;;;;;;2.67;0.93;;;;;;;;;;4999034;28;20684;-80
2023/04/23 22:37:23;;;;;;;1.70;0.80;;;;;;;;;;4999369;28;20215;-80
2023/04/23 22:39:49;;;;;;;0.63;0.60;;;;;;;;;;4999075;28;20208;-80
2023/04/23 22:42:15;;;;;;;1.07;0.60;;;;;;;;;;4998696;28;20210;-80
2023/04/23 22:44:42;;;;;;;1.30;1.00;;;;;;;;;;4998817;28;20215;-80
2023/04/23 22:47:08;;;;;;;2.23;0.73;;;;;;;;;;4998620;28;20685;-80
2023/04/23 22:49:34;;;;;;;2.30;0.90;;;;;;;;;;4998707;28;20546;-80
2023/04/23 22:52:01;;;;;;;1.63;1.00;;;;;;;;;;4998777;28;20247;-80
2023/04/23 22:54:27;;;;;;;1.17;0.80;;;;;;;;;;4998676;28;20218;-80
2023/04/23 22:56:54;;;;;;;0.80;0.80;;;;;;;;;;4998581;28;20235;-80
2023/04/23 22:59:21;;;;;;;1.00;0.83;;;;;;;;;;4998483;28;20203;-80
2023/04/23 23:01:47;;;;;;;2.70;0.80;;;;;;;;;;4999111;28;20230;-80
2023/04/23 23:04:14;;;;;;;1.47;0.70;;;;;;;;;;4998317;28;20212;-80
2023/04/23 23:06:41;;;;;;;1.33;0.70;;;;;;;;;;4998568;28;20235;-80
2023/04/23 23:09:08;;;;;;;0.80;0.80;;;;;;;;;;4998413;28;20259;-80
2023/04/23 23:11:35;;;;;;;1.03;0.90;;;;;;;;;;4998786;28;20227;-80
2023/04/23 23:14:01;;;;;;;0.97;0.70;;;;;;;;;;4998811;28;20207;-80
2023/04/23 23:16:29;;;;;;;1.50;1.00;;;;;;;;;;4998136;28;20772;-80
2023/04/23 23:18:55;;;;;;;0.70;0.70;;;;;;;;;;4998362;28;20208;-80
2023/04/23 23:21:21;;;;;;;0.90;0.60;;;;;;;;;;4998547;28;20204;-80
2023/04/23 23:23:48;;;;;;;1.20;0.73;;;;;;;;;;4998545;28;20219;-80
2023/04/23 23:26:14;;;;;;;2.93;0.80;;;;;;;;;;4998398;28;20231;-80
2023/04/23 23:28:40;;;;;;;1.13;0.60;;;;;;;;;;4998810;28;20214;-80
2023/04/23 23:31:07;;;;;;;4.13;1.10;;;;;;;;;;4998257;28;20227;-80
2023/04/23 23:33:35;;;;;;;1.20;0.97;;;;;;;;;;4998714;28;20254;-81
2023/04/23 23:36:01;;;;;;;1.50;0.90;;;;;;;;;;4997187;28;20235;-80
2023/04/23 23:38:27;;;;;;;1.83;0.60;;;;;;;;;;4998170;28;20211;-74
2023/04/23 23:40:54;;;;;;;1.03;0.57;;;;;;;;;;4996789;28;20211;-74
2023/04/23 23:43:20;;;;;;;1.40;0.80;;;;;;;;;;4996798;28;20238;-74
2023/04/23 23:45:46;;;;;;;2.03;0.90;;;;;;;;;;4996453;28;20737;-74
2023/04/23 23:48:12;;;;;;;3.77;0.93;;;;;;;;;;4996492;28;20207;-74